Time;durP1;ratioP1;P1;durP2;ratioP2;P2;SDS_P1;SDS_P2;PMS_P1;PMS_P2;Temp;Humidity;BMP_temperature;BMP_pressure;BME280_temperature;BME280_humidity;BME280_pressure;Samples;Min_cycle;Max_cycle;Signal;HPM_P1;HPM_P2
2022/04/05 00:01:13;;;;;;;52.55;19.23;;;;;;;8.81;100.00;100496.19;5000516;28;20025;-48
2022/04/05 00:03:39;;;;;;;47.67;17.35;;;;;;;8.73;100.00;100496.16;5001987;28;20385;-48
2022/04/05 00:06:04;;;;;;;52.35;16.25;;;;;;;8.75;100.00;100507.47;5002403;28;20025;-48
2022/04/05 00:08:29;;;;;;;40.70;15.20;;;;;;;8.65;100.00;100486.28;5003003;28;20026;-48
2022/04/05 00:10:55;;;;;;;33.53;13.80;;;;;;;8.79;100.00;100506.16;5017368;28;20042;-50
2022/04/05 00:13:20;;;;;;;38.53;14.65;;;;;;;8.78;100.00;100513.31;5001606;28;20034;-49
2022/04/05 00:15:45;;;;;;;39.47;15.32;;;;;;;8.76;100.00;100522.47;4991593;28;20022;-49
2022/04/05 00:18:11;;;;;;;44.33;14.98;;;;;;;8.81;100.00;100514.84;4980812;28;20183;-52
2022/04/05 00:20:36;;;;;;;35.03;14.85;;;;;;;8.80;100.00;100518.47;4989106;28;20026;-50
2022/04/05 00:23:02;;;;;;;39.45;14.73;;;;;;;8.78;100.00;100526.63;5002604;28;20152;-51
2022/04/05 00:25:27;;;;;;;38.67;14.60;;;;;;;8.76;100.00;100519.81;5002367;28;20048;-50
2022/04/05 00:27:52;;;;;;;39.33;15.95;;;;;;;8.76;100.00;100525.94;5001287;28;20508;-48
2022/04/05 00:30:18;;;;;;;35.92;14.27;;;;;;;8.74;100.00;100529.75;5000515;28;20026;-48
2022/04/05 00:32:44;;;;;;;42.55;15.80;;;;;;;8.73;100.00;100522.78;5001334;28;20057;-50
2022/04/05 00:35:10;;;;;;;39.55;15.15;;;;;;;8.75;100.00;100528.78;5001861;28;20080;-48
2022/04/05 00:37:36;;;;;;;45.80;16.73;;;;;;;8.68;100.00;100522.41;5002200;28;20036;-48
2022/04/05 00:40:05;;;;;;;43.42;17.05;;;;;;;8.67;100.00;100520.72;5001962;28;20018;-49
2022/04/05 00:42:31;;;;;;;44.92;17.45;;;;;;;8.70;100.00;100531.06;5001553;28;20417;-51
2022/04/05 00:44:56;;;;;;;44.30;16.08;;;;;;;8.71;100.00;100536.25;5015154;28;20034;-48
2022/04/05 00:47:23;;;;;;;43.00;16.50;;;;;;;8.69;100.00;100522.25;5001279;28;20496;-49
2022/04/05 00:49:50;;;;;;;40.95;17.75;;;;;;;8.68;100.00;100525.91;4989949;28;20074;-48
2022/04/05 00:52:18;;;;;;;45.78;17.65;;;;;;;8.70;100.00;100523.91;4981873;28;20081;-48
2022/04/05 00:54:51;;;;;;;45.97;19.13;;;;;;;8.65;100.00;100520.88;4987321;28;20026;-48
2022/04/05 00:57:21;;;;;;;40.67;17.25;;;;;;;8.67;100.00;100518.06;4999574;28;20029;-51
2022/04/05 00:59:56;;;;;;;50.07;20.13;;;;;;;8.68;100.00;100533.06;5000533;28;20058;-49
2022/04/05 01:02:25;;;;;;;51.63;19.23;;;;;;;8.68;100.00;100535.72;5001246;28;20030;-48
2022/04/05 01:04:51;;;;;;;43.70;17.83;;;;;;;8.68;100.00;100528.56;5000136;28;20030;-52
2022/04/05 01:07:18;;;;;;;45.63;18.25;;;;;;;8.66;100.00;100525.22;5001362;28;20084;-50
2022/04/05 01:09:44;;;;;;;50.22;18.13;;;;;;;8.65;100.00;100520.06;5000805;28;20030;-51
2022/04/05 01:12:12;;;;;;;45.15;18.50;;;;;;;8.66;100.00;100538.53;5000570;28;20037;-51
2022/04/05 01:14:38;;;;;;;47.50;18.80;;;;;;;8.66;100.00;100533.22;5001151;28;20539;-48
2022/04/05 01:17:04;;;;;;;45.88;19.10;;;;;;;8.64;100.00;100531.69;5000891;28;20029;-50
2022/04/05 01:19:31;;;;;;;38.53;17.70;;;;;;;8.62;100.00;100525.69;5001872;28;20040;-48
2022/04/05 01:21:57;;;;;;;45.30;21.45;;;;;;;8.64;100.00;100531.69;5000069;28;20370;-48
2022/04/05 01:24:22;;;;;;;46.65;20.85;;;;;;;8.64;100.00;100534.34;5001317;28;20533;-50
2022/04/05 01:26:52;;;;;;;51.30;20.40;;;;;;;8.63;100.00;100538.00;5000298;28;20018;-49
2022/04/05 01:29:20;;;;;;;54.60;20.25;;;;;;;8.63;100.00;100533.53;5000836;28;20513;-49
2022/04/05 01:31:51;;;;;;;52.35;20.98;;;;;;;8.58;100.00;100546.47;4999372;28;20014;-48
2022/04/05 01:34:19;;;;;;;50.80;21.38;;;;;;;8.59;100.00;100538.31;4994933;28;20026;-47
2022/04/05 01:36:51;;;;;;;52.42;21.63;;;;;;;8.61;100.00;100546.16;4999718;28;20441;-48
2022/04/05 01:39:19;;;;;;;49.90;20.45;;;;;;;8.55;100.00;100544.09;5000436;28;20043;-49
2022/04/05 01:41:45;;;;;;;43.67;20.27;;;;;;;8.60;100.00;100549.78;4999287;28;20033;-49
2022/04/05 01:44:12;;;;;;;48.22;19.58;;;;;;;8.59;100.00;100538.31;5000731;28;20071;-50
2022/04/05 01:46:38;;;;;;;46.83;19.83;;;;;;;8.58;100.00;100543.78;4998488;28;20069;-47
2022/04/05 01:49:11;;;;;;;43.53;18.02;;;;;;;8.56;100.00;100549.28;4999996;28;20480;-48
2022/04/05 01:51:37;;;;;;;49.30;19.30;;;;;;;8.54;100.00;100540.63;4999813;28;20029;-47
2022/04/05 01:54:07;;;;;;;51.38;21.35;;;;;;;8.56;100.00;100545.78;5000615;28;20013;-51
2022/04/05 01:56:48;;;;;;;54.58;20.67;;;;;;;8.58;100.00;100552.59;4999685;28;20128;-51
2022/04/05 01:59:16;;;;;;;51.17;19.92;;;;;;;8.54;100.00;100548.59;4999915;28;20057;-50
2022/04/05 02:01:43;;;;;;;52.00;20.77;;;;;;;8.49;100.00;100545.56;4999104;28;20034;-47
2022/04/05 02:04:10;;;;;;;54.47;21.70;;;;;;;8.49;100.00;100545.56;4999773;28;20026;-50
2022/04/05 02:06:36;;;;;;;50.17;20.00;;;;;;;8.51;100.00;100545.41;5000076;28;20030;-49
2022/04/05 02:09:02;;;;;;;53.95;22.20;;;;;;;8.48;100.00;100551.88;5000201;28;20049;-48
2022/04/05 02:11:27;;;;;;;53.13;22.30;;;;;;;8.47;100.00;100550.22;4998202;28;20025;-51
2022/04/05 02:13:52;;;;;;;55.28;20.73;;;;;;;8.45;100.00;100541.53;5000132;28;20022;-48
2022/04/05 02:16:18;;;;;;;45.47;20.30;;;;;;;8.44;100.00;100537.22;4998565;28;20021;-49
2022/04/05 02:18:43;;;;;;;47.08;21.08;;;;;;;8.44;100.00;100545.19;5000580;28;20030;-48
2022/04/05 02:21:08;;;;;;;59.38;21.27;;;;;;;8.46;100.00;100542.38;4999417;28;20037;-49
2022/04/05 02:23:34;;;;;;;50.65;20.13;;;;;;;8.44;100.00;100549.69;4999476;28;20373;-52
2022/04/05 02:25:59;;;;;;;64.13;21.52;;;;;;;8.42;100.00;100544.50;5000129;28;20045;-48
2022/04/05 02:28:25;;;;;;;55.00;21.70;;;;;;;8.41;100.00;100546.28;4998909;28;20088;-49
2022/04/05 02:30:52;;;;;;;57.95;21.25;;;;;;;8.40;100.00;100554.44;4999060;28;20453;-49
2022/04/05 02:33:17;;;;;;;52.88;20.42;;;;;;;8.39;100.00;100542.97;4998779;28;20437;-50
2022/04/05 02:35:43;;;;;;;47.97;18.63;;;;;;;8.38;100.00;100554.63;4999736;28;20026;-50
2022/04/05 02:38:08;;;;;;;44.88;19.25;;;;;;;8.37;100.00;100552.09;5000012;28;20030;-49
2022/04/05 02:40:33;;;;;;;47.85;18.05;;;;;;;8.37;100.00;100552.09;4998347;28;20033;-48
2022/04/05 02:42:59;;;;;;;51.22;18.38;;;;;;;8.36;100.00;100548.59;4999053;28;20103;-49
2022/04/05 02:45:24;;;;;;;42.58;18.23;;;;;;;8.37;100.00;100554.75;4999449;28;20030;-47
2022/04/05 02:47:49;;;;;;;41.00;17.60;;;;;;;8.35;100.00;100552.25;4998908;28;20030;-48
2022/04/05 02:50:17;;;;;;;44.20;17.70;;;;;;;8.33;100.00;100548.91;4998923;28;20018;-50
2022/04/05 02:52:46;;;;;;;45.15;16.80;;;;;;;8.34;100.00;100547.09;4999563;28;20049;-47
2022/04/05 02:55:12;;;;;;;44.20;17.60;;;;;;;8.32;100.00;100538.44;4999146;28;20372;-52
2022/04/05 02:57:39;;;;;;;45.75;17.02;;;;;;;8.32;100.00;100541.91;4998536;28;20527;-51
2022/04/05 03:00:11;;;;;;;43.88;16.92;;;;;;;8.32;100.00;100536.59;4999406;28;20599;-50
2022/04/05 03:02:37;;;;;;;41.78;16.17;;;;;;;8.32;100.00;100543.75;4999107;28;20338;-49
2022/04/05 03:05:06;;;;;;;40.95;17.50;;;;;;;8.31;100.00;100540.22;4997654;28;20037;-50
2022/04/05 03:07:31;;;;;;;46.28;20.58;;;;;;;8.31;100.00;100540.22;4999475;28;20604;-48
2022/04/05 03:09:56;;;;;;;53.05;21.50;;;;;;;8.30;100.00;100549.22;4999190;28;20105;-48
2022/04/05 03:12:22;;;;;;;46.10;18.80;;;;;;;8.29;100.00;100544.88;4998496;28;20079;-48
2022/04/05 03:14:47;;;;;;;49.15;20.50;;;;;;;8.29;100.00;100541.38;4981321;28;20030;-49
2022/04/05 03:17:12;;;;;;;44.78;19.20;;;;;;;8.28;100.00;100543.22;4979013;28;20110;-50
2022/04/05 03:19:38;;;;;;;48.88;18.42;;;;;;;8.28;100.00;100558.31;4979514;28;20065;-48
2022/04/05 03:22:05;;;;;;;38.95;17.58;;;;;;;8.27;100.00;100546.88;4978711;28;20576;-49
2022/04/05 03:24:31;;;;;;;44.50;16.27;;;;;;;8.23;100.00;100542.81;4981624;28;20076;-51
2022/04/05 03:26:57;;;;;;;35.83;15.70;;;;;;;8.27;100.00;100548.69;4982564;28;20465;-52
2022/04/05 03:29:22;;;;;;;39.22;15.23;;;;;;;8.27;100.00;100543.38;4983371;28;20038;-50
2022/04/05 03:31:48;;;;;;;39.58;16.10;;;;;;;8.27;100.00;100544.19;4982225;28;20033;-49
2022/04/05 03:34:14;;;;;;;42.10;17.38;;;;;;;8.29;100.00;100542.22;4983151;28;20031;-47
2022/04/05 03:36:41;;;;;;;38.30;16.48;;;;;;;8.30;100.00;100537.72;4982095;28;20027;-50
2022/04/05 03:39:06;;;;;;;45.20;16.60;;;;;;;8.29;100.00;100536.91;4984000;28;20026;-48
2022/04/05 03:41:32;;;;;;;40.30;18.30;;;;;;;8.30;100.00;100535.06;4982363;28;20512;-48
2022/04/05 03:43:58;;;;;;;41.33;17.45;;;;;;;8.27;100.00;100533.56;4982899;28;20066;-49
2022/04/05 03:46:23;;;;;;;42.92;18.50;;;;;;;8.31;100.00;100534.91;4981886;28;20069;-51
2022/04/05 03:48:48;;;;;;;39.33;18.30;;;;;;;8.32;100.00;100541.91;4983985;28;20371;-50
2022/04/05 03:51:14;;;;;;;39.35;16.33;;;;;;;8.30;100.00;100535.91;4981800;28;20026;-48
2022/04/05 03:53:39;;;;;;;38.08;16.30;;;;;;;8.33;100.00;100532.09;4983340;28;20346;-50
2022/04/05 03:56:05;;;;;;;42.97;17.63;;;;;;;8.29;100.00;100526.25;4982630;28;20037;-48
2022/04/05 03:58:30;;;;;;;37.33;16.98;;;;;;;8.34;100.00;100534.59;4983200;28;20034;-49
2022/04/05 04:00:55;;;;;;;34.95;16.13;;;;;;;8.34;100.00;100536.44;4982291;28;20045;-51
2022/04/05 04:03:20;;;;;;;36.30;15.32;;;;;;;8.31;100.00;100536.75;4994148;28;20469;-48
2022/04/05 04:05:46;;;;;;;37.83;16.67;;;;;;;8.28;100.00;100523.75;5001248;28;20022;-47
2022/04/05 04:08:11;;;;;;;38.20;14.90;;;;;;;8.32;100.00;100541.09;4985983;28;20025;-50
2022/04/05 04:10:36;;;;;;;41.60;17.38;;;;;;;8.32;100.00;100530.44;4982869;28;20543;-48
2022/04/05 04:13:01;;;;;;;37.00;15.70;;;;;;;8.33;100.00;100526.78;4985145;28;20029;-50
2022/04/05 04:15:27;;;;;;;45.13;15.48;;;;;;;8.33;100.00;100530.28;5001818;28;20041;-48
2022/04/05 04:17:52;;;;;;;41.28;15.65;;;;;;;8.32;100.00;100533.94;5001396;28;20061;-50
2022/04/05 04:20:17;;;;;;;41.67;17.35;;;;;;;8.33;100.00;100535.63;5001325;28;20499;-50
2022/04/05 04:22:42;;;;;;;39.60;15.20;;;;;;;8.26;100.00;100521.22;5000950;28;20065;-50
2022/04/05 04:25:08;;;;;;;39.53;16.15;;;;;;;8.28;100.00;100529.91;5002329;28;20029;-51
2022/04/05 04:27:34;;;;;;;36.08;16.50;;;;;;;8.32;100.00;100530.44;4999334;28;20117;-47
2022/04/05 04:30:00;;;;;;;41.13;16.60;;;;;;;8.33;100.00;100527.63;5002117;28;20032;-48
2022/04/05 04:32:26;;;;;;;47.08;17.23;;;;;;;8.32;100.00;100531.28;5001173;28;20026;-49
2022/04/05 04:34:51;;;;;;;44.60;17.83;;;;;;;8.31;100.00;100526.09;5000770;28;20429;-51
2022/04/05 04:37:17;;;;;;;39.92;16.17;;;;;;;8.31;100.00;100528.75;5000747;28;20113;-49
2022/04/05 04:39:42;;;;;;;42.40;17.38;;;;;;;8.31;100.00;100536.75;5002015;28;20085;-50
2022/04/05 04:42:08;;;;;;;34.28;14.18;;;;;;;8.28;100.00;100535.25;4993779;28;20027;-51
2022/04/05 04:44:33;;;;;;;37.63;16.85;;;;;;;8.33;100.00;100535.63;4988354;28;20099;-48
2022/04/05 04:46:58;;;;;;;38.78;14.35;;;;;;;8.32;100.00;100528.63;4981997;28;20382;-49
2022/04/05 04:49:24;;;;;;;33.97;14.50;;;;;;;8.32;100.00;100533.94;4981961;28;20409;-50
2022/04/05 04:51:49;;;;;;;42.08;17.67;;;;;;;8.34;100.00;100541.75;4995531;28;20078;-50
2022/04/05 04:54:15;;;;;;;42.78;16.15;;;;;;;8.35;100.00;100538.09;5001434;28;20030;-50
2022/04/05 04:56:40;;;;;;;35.97;15.82;;;;;;;8.33;100.00;100542.75;5000183;28;20533;-47
2022/04/05 04:59:06;;;;;;;36.35;16.33;;;;;;;8.32;100.00;100547.25;5001139;28;20053;-50
2022/04/05 05:01:31;;;;;;;39.65;16.63;;;;;;;8.33;100.00;100548.06;4999992;28;20105;-49
2022/04/05 05:03:56;;;;;;;40.28;16.98;;;;;;;8.32;100.00;100544.56;5000870;28;20026;-50
2022/04/05 05:06:22;;;;;;;37.38;15.90;;;;;;;8.32;100.00;100539.25;5001012;28;20030;-51
2022/04/05 05:08:47;;;;;;;44.13;17.75;;;;;;;8.31;100.00;100540.22;5000331;28;20124;-52
2022/04/05 05:11:12;;;;;;;41.35;16.77;;;;;;;8.32;100.00;100539.25;4998444;28;20022;-51
2022/04/05 05:13:38;;;;;;;42.92;18.17;;;;;;;8.33;100.00;100548.06;5000421;28;20058;-48
2022/04/05 05:16:03;;;;;;;41.83;16.92;;;;;;;8.24;100.00;100519.72;5001036;28;20344;-49
2022/04/05 05:18:29;;;;;;;42.63;16.20;;;;;;;8.34;100.00;100547.09;5000740;28;20079;-50
2022/04/05 05:20:55;;;;;;;40.30;16.63;;;;;;;8.31;100.00;100542.06;5000605;28;20033;-50
2022/04/05 05:23:20;;;;;;;40.33;15.98;;;;;;;8.34;100.00;100555.06;4999580;28;20481;-50
2022/04/05 05:25:46;;;;;;;36.00;15.63;;;;;;;8.34;100.00;100549.75;5000799;28;20032;-49
2022/04/05 05:28:12;;;;;;;38.40;15.52;;;;;;;8.34;100.00;100560.38;4999904;28;20372;-50
2022/04/05 05:30:37;;;;;;;39.63;14.43;;;;;;;8.29;100.00;100546.72;4999602;28;20167;-51
2022/04/05 05:33:02;;;;;;;38.38;16.63;;;;;;;8.35;100.00;100551.41;5000193;28;20026;-49
2022/04/05 05:35:28;;;;;;;40.60;16.08;;;;;;;8.34;100.00;100553.22;5000858;28;20057;-51
2022/04/05 05:37:56;;;;;;;38.42;14.80;;;;;;;8.35;100.00;100546.06;5000115;28;20029;-50
2022/04/05 05:40:22;;;;;;;37.90;15.48;;;;;;;8.36;100.00;100556.56;4999285;28;20113;-49
2022/04/05 05:42:59;;;;;;;36.33;16.17;;;;;;;8.37;100.00;100560.09;4999218;28;20072;-48
2022/04/05 05:45:29;;;;;;;37.78;14.73;;;;;;;8.35;100.00;100556.72;4995883;28;20037;-48
2022/04/05 05:47:55;;;;;;;34.28;14.00;;;;;;;8.26;100.00;100542.50;4998653;28;20022;-47
2022/04/05 05:50:20;;;;;;;33.05;13.45;;;;;;;8.38;100.00;100570.56;4997391;28;20034;-47
2022/04/05 05:52:46;;;;;;;36.08;15.27;;;;;;;8.37;100.00;100557.44;4998576;28;20112;-48
2022/04/05 05:55:14;;;;;;;42.17;16.27;;;;;;;8.38;100.00;100556.41;4998476;28;20017;-50
2022/04/05 05:57:40;;;;;;;39.30;16.23;;;;;;;8.38;100.00;100573.25;4997489;28;20603;-50
2022/04/05 06:00:11;;;;;;;39.88;16.13;;;;;;;8.38;100.00;100569.72;4998217;28;20069;-48
2022/04/05 06:02:41;;;;;;;41.25;15.93;;;;;;;8.38;100.00;100564.41;4997309;28;20030;-50
2022/04/05 06:05:07;;;;;;;36.92;15.48;;;;;;;8.39;100.00;100571.41;4995062;28;20474;-49
2022/04/05 06:07:34;;;;;;;39.22;16.67;;;;;;;8.39;100.00;100572.22;4998166;28;20488;-52
2022/04/05 06:10:01;;;;;;;42.15;17.25;;;;;;;8.39;100.00;100566.91;4997671;28;20038;-49
2022/04/05 06:12:26;;;;;;;44.90;17.85;;;;;;;8.40;100.00;100579.25;5012070;28;20151;-50
2022/04/05 06:14:51;;;;;;;45.30;19.05;;;;;;;8.41;100.00;100577.41;4997570;28;20132;-47
2022/04/05 06:17:17;;;;;;;46.10;17.52;;;;;;;8.43;100.00;100577.28;4996551;28;20022;-48
2022/04/05 06:19:43;;;;;;;41.33;16.60;;;;;;;8.45;100.00;100577.97;4997658;28;20434;-48
2022/04/05 06:22:08;;;;;;;40.80;17.02;;;;;;;8.44;100.00;100581.63;4996914;28;20102;-51
2022/04/05 06:24:34;;;;;;;41.08;17.63;;;;;;;8.45;100.00;100578.78;4997604;28;20033;-51
2022/04/05 06:26:59;;;;;;;46.17;15.80;;;;;;;8.47;100.00;100573.31;4998278;28;20288;-50
2022/04/05 06:29:24;;;;;;;39.42;15.65;;;;;;;8.46;100.00;100575.16;4999181;28;20026;-48
2022/04/05 06:31:51;;;;;;;34.25;14.57;;;;;;;8.45;100.00;100575.31;4997850;28;20117;-51
2022/04/05 06:34:16;;;;;;;35.03;15.02;;;;;;;8.44;100.00;100573.66;4997286;28;20014;-51
2022/04/05 06:36:41;;;;;;;32.85;14.20;;;;;;;8.55;100.00;100594.69;4998559;28;20504;-51
2022/04/05 06:39:07;;;;;;;32.80;14.10;;;;;;;8.56;100.00;100588.38;4999295;28;20021;-51
2022/04/05 06:41:33;;;;;;;33.80;14.10;;;;;;;8.59;100.00;100593.41;4998186;28;20046;-50
2022/04/05 06:43:58;;;;;;;33.05;15.18;;;;;;;8.57;100.00;100582.91;4998993;28;20482;-51
2022/04/05 06:46:23;;;;;;;35.45;13.93;;;;;;;8.61;100.00;100587.91;4997423;28;20453;-47
2022/04/05 06:48:48;;;;;;;30.90;14.80;;;;;;;8.59;100.00;100594.22;4999196;28;20033;-51
2022/04/05 06:51:14;;;;;;;29.98;12.80;;;;;;;8.58;100.00;100603.19;4999693;28;20049;-48
2022/04/05 06:53:39;;;;;;;40.60;12.55;;;;;;;8.54;100.00;100604.50;4999598;28;20025;-48
2022/04/05 06:56:06;;;;;;;32.45;14.55;;;;;;;8.54;100.00;100607.16;4998264;28;20076;-49
2022/04/05 06:58:32;;;;;;;32.97;13.07;;;;;;;8.58;100.00;100613.00;5003104;28;20107;-51
2022/04/05 07:00:57;;;;;;;25.05;11.50;;;;;;;8.57;100.00;100601.53;5005914;28;20389;-48
2022/04/05 07:03:22;;;;;;;28.15;12.23;;;;;;;8.58;100.00;100602.34;4991677;28;20497;-47
2022/04/05 07:05:47;;;;;;;27.65;12.40;;;;;;;8.61;100.00;100604.72;4990784;28;20034;-52
2022/04/05 07:08:13;;;;;;;22.48;10.93;;;;;;;8.58;100.00;100603.19;5003118;28;20053;-49
2022/04/05 07:10:38;;;;;;;32.63;12.60;;;;;;;8.62;100.00;100617.03;5002144;28;20129;-48
2022/04/05 07:13:06;;;;;;;25.52;11.82;;;;;;;8.64;100.00;100614.22;5004516;28;20068;-50
2022/04/05 07:15:31;;;;;;;24.65;11.20;;;;;;;8.62;100.00;100602.88;5005063;28;20042;-51
2022/04/05 07:17:56;;;;;;;25.48;11.85;;;;;;;8.65;100.00;100611.41;5005364;28;20931;-52
2022/04/05 07:20:22;;;;;;;25.67;10.75;;;;;;;8.68;100.00;100611.09;5005265;28;20117;-48
2022/04/05 07:22:48;;;;;;;28.02;11.18;;;;;;;8.71;100.00;100609.97;5004454;28;20080;-51
2022/04/05 07:25:15;;;;;;;31.02;10.60;;;;;;;8.74;100.00;100613.16;5000674;28;20127;-51
2022/04/05 07:27:41;;;;;;;27.85;11.48;;;;;;;8.78;100.00;100611.00;5004427;28;20034;-51
2022/04/05 07:30:07;;;;;;;24.73;10.50;;;;;;;8.82;100.00;100611.53;5004307;28;20034;-52
2022/04/05 07:32:37;;;;;;;26.70;11.32;;;;;;;8.86;100.00;100608.41;5005715;28;20033;-49
2022/04/05 07:35:02;;;;;;;26.02;10.63;;;;;;;8.89;100.00;100610.75;5003653;28;20053;-51
2022/04/05 07:37:30;;;;;;;22.13;10.73;;;;;;;8.89;100.00;100601.91;5005663;28;20061;-52
2022/04/05 07:39:55;;;;;;;26.52;10.85;;;;;;;8.91;100.00;100598.13;5005150;28;20037;-51
2022/04/05 07:42:20;;;;;;;23.20;9.70;;;;;;;8.98;100.00;100605.47;4988458;28;20465;-50
2022/04/05 07:44:45;;;;;;;23.10;9.07;;;;;;;8.96;100.00;100603.81;4984113;28;20140;-48
2022/04/05 07:47:11;;;;;;;23.27;10.48;;;;;;;8.98;100.00;100597.47;4982948;28;20407;-49
2022/04/05 07:49:37;;;;;;;21.13;10.13;;;;;;;8.95;100.00;100611.97;4994775;28;20513;-49
2022/04/05 07:52:02;;;;;;;22.60;9.68;;;;;;;8.95;100.00;100612.78;4996352;28;20037;-51
2022/04/05 07:54:28;;;;;;;23.00;10.30;;;;;;;8.97;100.00;100607.31;5003939;28;20203;-51
2022/04/05 07:56:53;;;;;;;23.58;10.35;;;;;;;9.00;100.00;100611.50;5001913;28;20053;-49
2022/04/05 07:59:18;;;;;;;25.48;10.35;;;;;;;9.05;100.00;100607.34;5003014;28;20062;-51
2022/04/05 08:01:44;;;;;;;28.55;10.63;;;;;;;9.12;100.00;100618.22;5003251;28;20042;-49
2022/04/05 08:04:09;;;;;;;23.17;10.10;;;;;;;9.15;100.00;100613.41;5003634;28;20053;-51
2022/04/05 08:06:34;;;;;;;21.35;7.63;;;;;;;9.20;100.00;100618.28;4986811;28;20076;-51
2022/04/05 08:09:00;;;;;;;17.70;8.48;;;;;;;9.21;100.00;100611.13;5004417;28;20022;-49
2022/04/05 08:11:25;;;;;;;15.88;8.90;;;;;;;9.23;100.00;100617.13;5014848;28;20088;-51
2022/04/05 08:13:51;;;;;;;19.20;9.32;;;;;;;9.22;100.00;100612.78;5001853;28;20033;-48
2022/04/05 08:16:17;;;;;;;15.70;8.20;;;;;;;9.22;100.00;100615.47;4999529;28;20104;-52
2022/04/05 08:18:42;;;;;;;15.30;7.72;;;;;;;9.22;100.00;100620.78;5016647;28;20053;-48
2022/04/05 08:21:07;;;;;;;15.27;7.65;;;;;;;9.20;100.00;100628.94;5000907;28;20436;-51
2022/04/05 08:23:32;;;;;;;17.35;8.60;;;;;;;9.17;100.00;100620.44;5001689;28;20040;-51
2022/04/05 08:25:58;;;;;;;21.48;8.40;;;;;;;9.22;100.00;100631.44;5000530;28;20421;-50
2022/04/05 08:28:24;;;;;;;19.83;7.97;;;;;;;9.25;100.00;100629.31;5001446;28;20118;-51
2022/04/05 08:30:49;;;;;;;18.08;7.82;;;;;;;9.36;100.00;100627.34;5000148;28;20399;-49
2022/04/05 08:33:14;;;;;;;16.25;7.55;;;;;;;9.43;100.00;100628.38;5000396;28;20048;-50
2022/04/05 08:35:40;;;;;;;15.45;7.35;;;;;;;9.48;100.00;100624.25;5000437;28;20429;-50
2022/04/05 08:38:06;;;;;;;17.60;7.57;;;;;;;9.60;100.00;100629.31;5001715;28;20058;-48
2022/04/05 08:40:31;;;;;;;20.02;6.97;;;;;;;9.59;100.00;100630.28;5000659;28;20573;-51
2022/04/05 08:42:57;;;;;;;17.52;7.68;;;;;;;9.51;100.00;100641.75;5000887;28;20041;-48
2022/04/05 08:45:24;;;;;;;15.98;6.97;;;;;;;9.39;100.00;100643.03;4999718;28;20030;-51
2022/04/05 08:47:52;;;;;;;20.00;7.55;;;;;;;9.27;100.00;100640.63;5000534;28;20026;-49
2022/04/05 08:50:25;;;;;;;15.15;7.60;;;;;;;9.23;100.00;100639.28;5000600;28;20512;-48
2022/04/05 08:52:51;;;;;;;18.40;7.10;;;;;;;9.20;100.00;100644.06;5001026;28;20388;-50
2022/04/05 08:55:17;;;;;;;14.80;7.70;;;;;;;9.15;100.00;100645.38;5014963;28;20045;-48
2022/04/05 08:57:43;;;;;;;16.30;8.48;;;;;;;9.08;100.00;100635.50;4999998;28;20127;-48
2022/04/05 09:00:10;;;;;;;19.55;8.52;;;;;;;9.08;100.00;100646.16;5000153;28;20046;-48
2022/04/05 09:02:36;;;;;;;21.67;8.40;;;;;;;9.10;100.00;100641.53;4997305;28;20144;-50
2022/04/05 09:05:02;;;;;;;20.17;8.50;;;;;;;9.14;100.00;100634.88;4985583;28;20113;-50
2022/04/05 09:07:35;;;;;;;22.58;8.57;;;;;;;9.23;100.00;100643.75;4981485;28;20034;-51
2022/04/05 09:10:08;;;;;;;22.30;8.82;;;;;;;9.24;100.00;100638.28;4981207;28;20172;-48
2022/04/05 09:12:38;;;;;;;21.45;8.85;;;;;;;9.24;100.00;100634.78;4979927;28;20030;-49
2022/04/05 09:15:24;;;;;;;20.25;8.80;;;;;;;9.32;100.00;100648.16;4980279;28;20026;-51
2022/04/05 09:17:51;;;;;;;19.35;8.75;;;;;;;9.38;100.00;100650.19;4980348;28;20058;-50
2022/04/05 09:20:18;;;;;;;18.10;8.60;;;;;;;9.41;100.00;100639.19;4979672;28;20393;-48
2022/04/05 09:22:44;;;;;;;17.60;8.73;;;;;;;9.37;100.00;100645.84;4980353;28;20706;-50
2022/04/05 09:25:15;;;;;;;17.33;8.13;;;;;;;9.37;100.00;100650.34;4980129;28;20027;-51
2022/04/05 09:27:48;;;;;;;17.08;8.93;;;;;;;9.39;100.00;100656.38;4980400;28;20041;-50
2022/04/05 09:30:17;;;;;;;20.35;8.55;;;;;;;9.35;100.00;100650.47;4979559;28;20038;-49
2022/04/05 09:32:47;;;;;;;15.70;8.77;;;;;;;9.43;100.00;100655.88;4979881;28;20026;-50
2022/04/05 09:35:13;;;;;;;22.95;8.38;;;;;;;9.52;100.00;100652.25;4979839;28;20049;-49
2022/04/05 09:37:39;;;;;;;17.85;8.27;;;;;;;9.56;100.00;100655.44;4980216;28;20030;-47
2022/04/05 09:40:32;;;;;;;13.90;8.00;;;;;;;9.57;100.00;100648.28;4980761;28;20034;-48
2022/04/05 09:42:58;;;;;;;13.50;7.20;;;;;;;9.67;100.00;100662.31;4980963;28;20508;-51
2022/04/05 09:45:45;;;;;;;24.40;8.38;;;;;;;9.77;100.00;100659.53;4980151;28;20048;-51
2022/04/05 09:48:11;;;;;;;15.02;7.20;;;;;;;9.91;100.00;100661.56;4979131;28;20042;-50
2022/04/05 09:51:12;;;;;;;17.13;7.22;;;;;;;9.96;100.00;100661.97;4979658;28;20418;-51
2022/04/05 09:53:50;;;;;;;16.10;7.28;;;;;;;9.89;100.00;100663.56;4979851;28;20029;-52
2022/04/05 09:56:19;;;;;;;11.82;6.22;;;;;;;9.70;100.00;100646.00;4978407;28;20030;-52
2022/04/05 09:59:04;;;;;;;12.38;6.65;;;;;;;9.69;100.00;100663.00;4980426;28;20106;-49
2022/04/05 10:01:32;;;;;;;12.18;6.95;;;;;;;9.63;100.00;100659.13;4978390;28;20579;-52
2022/04/05 10:04:08;;;;;;;15.18;6.63;;;;;;;9.63;100.00;100658.31;4979498;28;20469;-50
2022/04/05 10:06:38;;;;;;;12.93;6.88;;;;;;;9.62;100.00;100665.47;4979576;28;20057;-49
2022/04/05 10:09:03;;;;;;;12.77;7.07;;;;;;;9.64;100.00;100660.81;4980319;28;20050;-50
2022/04/05 10:11:32;;;;;;;15.15;6.68;;;;;;;9.60;100.00;100664.78;4979176;28;20124;-52
2022/04/05 10:13:59;;;;;;;11.80;6.32;;;;;;;9.55;100.00;100667.09;4990843;28;20018;-50
2022/04/05 10:16:28;;;;;;;17.00;7.28;;;;;;;9.56;100.00;100668.78;4996096;28;20526;-52
2022/04/05 10:18:57;;;;;;;15.55;7.78;;;;;;;9.60;100.00;100669.28;5000248;28;20489;-49
2022/04/05 10:21:26;;;;;;;13.05;7.28;;;;;;;9.59;100.00;100672.94;4997571;28;20029;-51
2022/04/05 10:23:53;;;;;;;11.95;6.80;;;;;;;9.53;100.00;100675.25;4999687;28;20030;-51
2022/04/05 10:26:24;;;;;;;16.42;7.45;;;;;;;9.53;100.00;100677.91;4997055;28;20105;-51
2022/04/05 10:28:52;;;;;;;12.00;7.22;;;;;;;9.52;100.00;100684.25;4998994;28;20503;-50
2022/04/05 10:31:36;;;;;;;15.10;7.82;;;;;;;9.57;100.00;100681.09;4997664;28;20049;-49
2022/04/05 10:34:20;;;;;;;21.92;7.50;;;;;;;9.59;100.00;100668.47;4998885;28;20092;-48
2022/04/05 10:37:18;;;;;;;15.65;7.45;;;;;;;9.63;100.00;100667.13;4998608;28;20033;-52
2022/04/05 10:39:56;;;;;;;12.40;7.00;;;;;;;9.66;100.00;100677.50;4997615;28;20037;-50
2022/04/05 10:42:24;;;;;;;14.60;7.47;;;;;;;9.68;100.00;100669.34;5013174;28;20444;-51
2022/04/05 10:45:12;;;;;;;13.52;7.32;;;;;;;9.79;100.00;100670.88;4998699;28;20026;-50
2022/04/05 10:47:55;;;;;;;13.32;6.80;;;;;;;9.86;100.00;100669.22;4998210;28;20034;-51
2022/04/05 10:50:20;;;;;;;13.45;7.15;;;;;;;9.94;100.00;100671.09;4998418;28;20022;-49
2022/04/05 10:52:48;;;;;;;16.08;6.90;;;;;;;9.98;100.00;100672.44;4998923;28;20545;-51
2022/04/05 10:55:18;;;;;;;14.63;6.95;;;;;;;9.96;100.00;100675.31;4997474;28;20141;-51
2022/04/05 10:57:44;;;;;;;15.25;7.13;;;;;;;9.92;100.00;100673.09;4999047;28;20253;-51
2022/04/05 11:00:26;;;;;;;10.82;6.15;;;;;;;9.91;100.00;100680.25;5016105;28;20111;-52
2022/04/05 11:02:51;;;;;;;10.15;5.85;;;;;;;9.95;100.00;100662.94;4997879;28;20440;-50
2022/04/05 11:05:19;;;;;;;16.27;6.77;;;;;;;10.02;100.00;100660.47;4995778;28;20195;-50
2022/04/05 11:07:53;;;;;;;10.00;5.28;;;;;;;10.12;100.00;100673.69;4997479;28;20392;-51
2022/04/05 11:10:37;;;;;;;15.63;6.43;;;;;;;10.32;100.00;100663.56;4996750;28;20029;-49
2022/04/05 11:13:17;;;;;;;11.13;5.45;;;;;;;10.44;100.00;100671.09;5012806;28;20092;-50